Date,TemperatureHighF,TemperatureAvgF,TemperatureLowF,DewpointHighF,DewpointAvgF,DewpointLowF,HumidityHigh,HumidityAvg,HumidityLow,PressureMaxIn,PressureMinIn,WindSpeedMaxMPH,WindSpeedAvgMPH,GustSpeedMaxMPH,PrecipitationSumIn
2013-4-1,91.0,76.7,67.1,82.4,65.9,48.8,100,72,35,30.05,29.92,10,2,19,0.00
2013-4-2,87.5,74.5,65.8,81.1,49.3,-99.9,100,74,1,30.08,29.95,5,1,12,0.00
2013-4-3,86.0,76.9,69.0,84.2,68.8,-99.9,100,88,8,30.05,29.97,7,2,17,0.00
2013-4-4,88.5,76.2,69.5,88.5,68.8,-99.9,100,91,53,30.03,29.89,16,3,39,0.42
2013-4-5,72.2,68.6,65.2,66.0,-70.7,-99.9,81,14,81,29.97,29.80,6,2,17,0.29
2013-4-6,76.8,67.6,59.0,76.8,-30.9,-99.9,100,35,1,30.04,29.89,8,3,18,0.01
2013-4-7,77.8,73.4,68.7,77.8,73.4,68.7,100,100,100,30.12,30.00,7,2,16,0.00
2013-4-8,83.9,72.6,61.1,80.2,54.6,-99.9,100,81,3,30.12,30.02,6,1,13,0.00
2013-4-9,82.6,75.4,71.2,82.6,74.1,-99.9,100,99,79,30.13,30.02,8,3,17,0.05
2013-4-10,85.1,77.2,71.1,85.1,76.4,59.4,100,98,65,30.08,29.97,8,3,21,0.00
2013-4-11,85.9,78.8,75.1,85.9,73.5,-99.9,100,92,61,30.00,29.86,10,4,22,0.00
2013-4-12,90.3,80.7,76.8,90.3,74.7,63.6,100,83,58,29.95,29.84,9,4,20,0.13
2013-4-13,86.6,76.5,71.5,86.4,33.3,-99.9,100,64,63,29.96,29.85,5,0,13,0.15
2013-4-14,87.5,79.2,71.2,87.4,1.9,-99.9,100,52,62,29.96,29.87,8,2,21,0.00
2013-4-15,91.2,78.5,70.9,91.2,-11.0,-99.9,100,44,55,30.04,29.90,12,1,24,0.78
2013-4-16,84.7,77.4,70.6,84.7,-16.2,-99.9,100,38,57,30.11,30.00,8,2,17,0.00
2013-4-17,84.0,78.2,72.5,84.0,71.0,-99.9,100,88,61,30.11,30.00,7,2,14,0.00
2013-4-18,87.1,79.7,72.7,87.1,64.2,-99.9,100,83,54,30.05,29.95,9,3,17,0.00
2013-4-19,89.8,82.1,76.3,87.4,70.1,-99.9,100,75,50,30.04,29.93,9,4,22,0.00
2013-4-20,89.8,78.5,72.2,89.8,38.5,-99.9,100,65,52,30.07,29.94,8,1,16,0.30
2013-4-21,85.4,78.0,72.1,85.4,21.1,-99.9,100,65,81,30.09,29.95,9,2,16,0.00
2013-4-22,85.6,76.1,72.0,85.6,63.3,-99.9,100,84,67,30.04,29.91,8,1,15,0.00
2013-4-23,84.3,75.8,68.0,82.8,57.1,-99.9,100,80,65,30.07,29.92,11,4,21,0.00
2013-4-24,85.3,77.2,69.0,78.9,70.4,-99.9,100,85,57,30.11,30.01,6,2,15,0.00
2013-4-25,84.4,76.0,68.2,77.0,66.7,-99.9,100,78,48,30.18,30.06,7,1,17,0.01
2013-4-26,84.1,75.9,65.5,77.1,68.7,-99.9,100,82,61,30.21,30.09,8,2,18,0.00
2013-4-27,83.4,77.5,71.6,70.9,68.0,62.6,87,73,51,30.19,30.07,8,3,21,0.00
2013-4-28,84.5,77.8,72.9,69.3,66.3,62.3,82,69,49,30.10,29.98,8,4,17,0.00
2013-4-29,87.2,78.1,71.8,77.1,72.0,66.2,100,82,60,30.02,29.92,7,2,19,0.00
2013-4-30,86.4,76.7,71.0,85.7,74.7,64.9,100,94,80,29.98,29.89,9,1,17,0.11